Athol, Kentucky
Current Conditions -  °F | °C
As of 3:53 PM on Tuesday 25 Nov 2014 (Local Time) from KJKL Reporting Station
Clear Clear  
Wind Chill: 11°   Ceiling: Unl
Heat Index: 11°   Visibility: 10mi
Dew Point: -4°   Wind: 5mph
Humidity: 35%   Direction: NA
Pressure: 30.07"   Gusts: NA
Location:  37.56°N, 83.57°W
Report Text: KJKL 252053Z AUTO VRB04KT 10SM CLR 11/M04 A3007 RMK AO2 SLP185 T01061044 55006
Loading
Personal Weather Stations






























Interactive Weather Map New forecast layout! Learn more

10-Day Weather Forecast

Advertisements
Track Severe Weather on mobile